sensor_id;sensor_type;location;lat;lon;timestamp;P1;durP1;ratioP1;P2;durP2;ratioP2
75941;SDS011;64622;46.220;19.878;2023-03-14T00:02:37;12.77;;;5.57;;
75941;SDS011;64622;46.220;19.878;2023-03-14T00:05:04;15.27;;;6.37;;
75941;SDS011;64622;46.220;19.878;2023-03-14T00:07:38;13.53;;;5.77;;
75941;SDS011;64622;46.220;19.878;2023-03-14T00:10:08;14.90;;;5.95;;
75941;SDS011;64622;46.220;19.878;2023-03-14T00:12:38;14.27;;;6.30;;
75941;SDS011;64622;46.220;19.878;2023-03-14T00:15:06;15.63;;;6.37;;
75941;SDS011;64622;46.220;19.878;2023-03-14T00:17:34;13.32;;;5.85;;
75941;SDS011;64622;46.220;19.878;2023-03-14T00:20:04;15.17;;;6.40;;
75941;SDS011;64622;46.220;19.878;2023-03-14T00:22:37;15.60;;;6.93;;
75941;SDS011;64622;46.220;19.878;2023-03-14T00:25:05;14.02;;;6.95;;
75941;SDS011;64622;46.220;19.878;2023-03-14T00:27:33;14.75;;;6.05;;
75941;SDS011;64622;46.220;19.878;2023-03-14T00:30:00;16.02;;;6.53;;
75941;SDS011;64622;46.220;19.878;2023-03-14T00:32:28;20.77;;;7.30;;
75941;SDS011;64622;46.220;19.878;2023-03-14T00:34:55;15.02;;;6.30;;
75941;SDS011;64622;46.220;19.878;2023-03-14T00:37:22;15.45;;;7.18;;
75941;SDS011;64622;46.220;19.878;2023-03-14T00:39:51;15.00;;;6.68;;
75941;SDS011;64622;46.220;19.878;2023-03-14T00:42:17;15.15;;;6.65;;
75941;SDS011;64622;46.220;19.878;2023-03-14T00:44:44;14.23;;;6.67;;
75941;SDS011;64622;46.220;19.878;2023-03-14T00:47:11;14.93;;;6.10;;
75941;SDS011;64622;46.220;19.878;2023-03-14T00:49:38;15.55;;;7.10;;
75941;SDS011;64622;46.220;19.878;2023-03-14T00:52:04;14.50;;;5.95;;
75941;SDS011;64622;46.220;19.878;2023-03-14T00:54:31;16.17;;;6.70;;
75941;SDS011;64622;46.220;19.878;2023-03-14T00:56:58;15.50;;;6.50;;
75941;SDS011;64622;46.220;19.878;2023-03-14T00:59:25;14.43;;;6.10;;
75941;SDS011;64622;46.220;19.878;2023-03-14T01:01:51;15.85;;;6.45;;
75941;SDS011;64622;46.220;19.878;2023-03-14T01:04:18;13.32;;;6.22;;
75941;SDS011;64622;46.220;19.878;2023-03-14T01:06:45;15.80;;;6.93;;
75941;SDS011;64622;46.220;19.878;2023-03-14T01:09:12;16.10;;;6.00;;
75941;SDS011;64622;46.220;19.878;2023-03-14T01:11:38;15.52;;;6.25;;
75941;SDS011;64622;46.220;19.878;2023-03-14T01:14:05;16.90;;;6.45;;
75941;SDS011;64622;46.220;19.878;2023-03-14T01:16:33;14.50;;;6.15;;
75941;SDS011;64622;46.220;19.878;2023-03-14T01:19:01;15.25;;;6.78;;
75941;SDS011;64622;46.220;19.878;2023-03-14T01:21:30;15.33;;;6.90;;
75941;SDS011;64622;46.220;19.878;2023-03-14T01:23:59;15.88;;;6.60;;
75941;SDS011;64622;46.220;19.878;2023-03-14T01:26:29;16.77;;;7.05;;
75941;SDS011;64622;46.220;19.878;2023-03-14T01:28:58;15.88;;;7.30;;
75941;SDS011;64622;46.220;19.878;2023-03-14T01:31:25;18.85;;;7.50;;
75941;SDS011;64622;46.220;19.878;2023-03-14T01:33:52;16.40;;;7.83;;
75941;SDS011;64622;46.220;19.878;2023-03-14T01:36:20;17.12;;;6.90;;
75941;SDS011;64622;46.220;19.878;2023-03-14T01:38:47;16.25;;;7.35;;
75941;SDS011;64622;46.220;19.878;2023-03-14T01:41:16;18.67;;;7.60;;
75941;SDS011;64622;46.220;19.878;2023-03-14T01:43:53;15.00;;;6.82;;
75941;SDS011;64622;46.220;19.878;2023-03-14T01:46:30;16.47;;;6.87;;
75941;SDS011;64622;46.220;19.878;2023-03-14T01:49:09;13.88;;;6.57;;
75941;SDS011;64622;46.220;19.878;2023-03-14T01:52:25;17.23;;;7.22;;
75941;SDS011;64622;46.220;19.878;2023-03-14T01:54:50;13.13;;;6.53;;
75941;SDS011;64622;46.220;19.878;2023-03-14T01:57:22;14.87;;;7.22;;
75941;SDS011;64622;46.220;19.878;2023-03-14T02:00:04;16.07;;;6.90;;
75941;SDS011;64622;46.220;19.878;2023-03-14T02:02:41;13.68;;;6.90;;
75941;SDS011;64622;46.220;19.878;2023-03-14T02:05:12;14.30;;;6.80;;
75941;SDS011;64622;46.220;19.878;2023-03-14T02:07:50;16.80;;;7.50;;
75941;SDS011;64622;46.220;19.878;2023-03-14T02:10:20;15.10;;;7.57;;
75941;SDS011;64622;46.220;19.878;2023-03-14T02:12:49;16.07;;;6.90;;
75941;SDS011;64622;46.220;19.878;2023-03-14T02:15:18;16.77;;;6.75;;
75941;SDS011;64622;46.220;19.878;2023-03-14T02:17:47;13.68;;;5.95;;
75941;SDS011;64622;46.220;19.878;2023-03-14T02:22:54;14.23;;;6.80;;
75941;SDS011;64622;46.220;19.878;2023-03-14T02:28:03;17.58;;;6.57;;
75941;SDS011;64622;46.220;19.878;2023-03-14T02:30:30;14.27;;;5.97;;
75941;SDS011;64622;46.220;19.878;2023-03-14T02:32:59;18.75;;;6.78;;
75941;SDS011;64622;46.220;19.878;2023-03-14T02:36:15;14.68;;;6.62;;
75941;SDS011;64622;46.220;19.878;2023-03-14T02:38:29;14.27;;;6.00;;
75941;SDS011;64622;46.220;19.878;2023-03-14T02:41:01;15.75;;;5.75;;
75941;SDS011;64622;46.220;19.878;2023-03-14T02:43:29;13.38;;;6.45;;
75941;SDS011;64622;46.220;19.878;2023-03-14T02:45:56;15.63;;;6.57;;
75941;SDS011;64622;46.220;19.878;2023-03-14T02:48:25;14.48;;;6.93;;
75941;SDS011;64622;46.220;19.878;2023-03-14T02:50:55;15.40;;;6.67;;
75941;SDS011;64622;46.220;19.878;2023-03-14T02:53:26;15.75;;;6.28;;
75941;SDS011;64622;46.220;19.878;2023-03-14T02:55:55;13.62;;;6.87;;
75941;SDS011;64622;46.220;19.878;2023-03-14T02:58:21;13.80;;;5.97;;
75941;SDS011;64622;46.220;19.878;2023-03-14T03:00:49;14.75;;;6.35;;
75941;SDS011;64622;46.220;19.878;2023-03-14T03:03:17;13.40;;;6.50;;
75941;SDS011;64622;46.220;19.878;2023-03-14T03:05:47;11.50;;;5.47;;
75941;SDS011;64622;46.220;19.878;2023-03-14T03:08:15;13.65;;;6.50;;
75941;SDS011;64622;46.220;19.878;2023-03-14T03:10:42;11.65;;;6.25;;
75941;SDS011;64622;46.220;19.878;2023-03-14T03:13:09;13.35;;;6.10;;
75941;SDS011;64622;46.220;19.878;2023-03-14T03:15:36;13.67;;;5.93;;
75941;SDS011;64622;46.220;19.878;2023-03-14T03:18:03;14.43;;;6.30;;
75941;SDS011;64622;46.220;19.878;2023-03-14T03:20:30;14.60;;;6.93;;
75941;SDS011;64622;46.220;19.878;2023-03-14T03:22:58;13.80;;;5.90;;
75941;SDS011;64622;46.220;19.878;2023-03-14T03:25:25;13.75;;;5.03;;
75941;SDS011;64622;46.220;19.878;2023-03-14T03:27:52;13.80;;;6.33;;
75941;SDS011;64622;46.220;19.878;2023-03-14T03:30:21;13.10;;;5.90;;
75941;SDS011;64622;46.220;19.878;2023-03-14T03:32:48;12.77;;;5.57;;
75941;SDS011;64622;46.220;19.878;2023-03-14T03:35:15;11.68;;;5.05;;
75941;SDS011;64622;46.220;19.878;2023-03-14T03:37:42;12.80;;;5.70;;
75941;SDS011;64622;46.220;19.878;2023-03-14T03:40:09;16.50;;;6.43;;
75941;SDS011;64622;46.220;19.878;2023-03-14T03:42:38;13.45;;;6.45;;
75941;SDS011;64622;46.220;19.878;2023-03-14T03:45:05;13.35;;;6.03;;
75941;SDS011;64622;46.220;19.878;2023-03-14T03:47:33;12.90;;;5.85;;
75941;SDS011;64622;46.220;19.878;2023-03-14T03:50:03;14.30;;;5.82;;
75941;SDS011;64622;46.220;19.878;2023-03-14T03:52:31;13.17;;;5.77;;
75941;SDS011;64622;46.220;19.878;2023-03-14T03:54:58;12.82;;;5.75;;
75941;SDS011;64622;46.220;19.878;2023-03-14T03:57:24;12.10;;;5.25;;
75941;SDS011;64622;46.220;19.878;2023-03-14T03:59:52;12.50;;;4.35;;
75941;SDS011;64622;46.220;19.878;2023-03-14T04:02:18;10.57;;;4.37;;
75941;SDS011;64622;46.220;19.878;2023-03-14T04:04:45;14.47;;;5.20;;
75941;SDS011;64622;46.220;19.878;2023-03-14T04:07:12;13.27;;;5.78;;
75941;SDS011;64622;46.220;19.878;2023-03-14T04:09:40;13.35;;;5.10;;
75941;SDS011;64622;46.220;19.878;2023-03-14T04:12:08;13.38;;;4.40;;
75941;SDS011;64622;46.220;19.878;2023-03-14T04:14:34;13.48;;;4.60;;
75941;SDS011;64622;46.220;19.878;2023-03-14T04:17:01;12.77;;;5.30;;
75941;SDS011;64622;46.220;19.878;2023-03-14T04:19:29;11.82;;;4.65;;
75941;SDS011;64622;46.220;19.878;2023-03-14T04:21:56;11.68;;;5.55;;
75941;SDS011;64622;46.220;19.878;2023-03-14T04:24:24;13.62;;;4.70;;
75941;SDS011;64622;46.220;19.878;2023-03-14T04:26:51;10.00;;;4.78;;
75941;SDS011;64622;46.220;19.878;2023-03-14T04:29:17;12.97;;;5.27;;
75941;SDS011;64622;46.220;19.878;2023-03-14T04:31:45;12.75;;;5.20;;
75941;SDS011;64622;46.220;19.878;2023-03-14T04:34:11;15.32;;;5.28;;
75941;SDS011;64622;46.220;19.878;2023-03-14T04:36:39;12.50;;;5.40;;
75941;SDS011;64622;46.220;19.878;2023-03-14T04:39:06;10.65;;;4.70;;
75941;SDS011;64622;46.220;19.878;2023-03-14T04:41:33;12.63;;;5.17;;
75941;SDS011;64622;46.220;19.878;2023-03-14T04:44:00;12.23;;;4.55;;
75941;SDS011;64622;46.220;19.878;2023-03-14T04:46:27;13.57;;;5.40;;
75941;SDS011;64622;46.220;19.878;2023-03-14T04:48:53;13.40;;;6.28;;
75941;SDS011;64622;46.220;19.878;2023-03-14T04:51:22;11.10;;;4.85;;
75941;SDS011;64622;46.220;19.878;2023-03-14T04:53:49;12.13;;;5.57;;
75941;SDS011;64622;46.220;19.878;2023-03-14T04:56:16;13.00;;;5.00;;
75941;SDS011;64622;46.220;19.878;2023-03-14T04:58:43;11.95;;;5.50;;
75941;SDS011;64622;46.220;19.878;2023-03-14T05:01:10;12.95;;;5.53;;
75941;SDS011;64622;46.220;19.878;2023-03-14T05:03:38;11.12;;;4.72;;
75941;SDS011;64622;46.220;19.878;2023-03-14T05:06:05;11.03;;;4.87;;
75941;SDS011;64622;46.220;19.878;2023-03-14T05:08:32;11.65;;;5.82;;
75941;SDS011;64622;46.220;19.878;2023-03-14T05:10:59;12.73;;;6.28;;
75941;SDS011;64622;46.220;19.878;2023-03-14T05:13:26;12.37;;;5.35;;
75941;SDS011;64622;46.220;19.878;2023-03-14T05:15:52;11.68;;;5.57;;
75941;SDS011;64622;46.220;19.878;2023-03-14T05:18:22;13.93;;;5.07;;
75941;SDS011;64622;46.220;19.878;2023-03-14T05:20:50;11.90;;;5.82;;
75941;SDS011;64622;46.220;19.878;2023-03-14T05:23:18;13.55;;;5.85;;
75941;SDS011;64622;46.220;19.878;2023-03-14T05:25:46;13.75;;;7.03;;
75941;SDS011;64622;46.220;19.878;2023-03-14T05:28:13;12.80;;;6.07;;
75941;SDS011;64622;46.220;19.878;2023-03-14T05:30:41;13.00;;;5.23;;
75941;SDS011;64622;46.220;19.878;2023-03-14T05:33:08;10.93;;;5.60;;
75941;SDS011;64622;46.220;19.878;2023-03-14T05:35:35;10.68;;;4.75;;
75941;SDS011;64622;46.220;19.878;2023-03-14T05:38:02;14.93;;;4.57;;
75941;SDS011;64622;46.220;19.878;2023-03-14T05:40:30;12.73;;;4.82;;
75941;SDS011;64622;46.220;19.878;2023-03-14T05:42:56;12.67;;;5.60;;
75941;SDS011;64622;46.220;19.878;2023-03-14T05:45:23;13.00;;;5.40;;
75941;SDS011;64622;46.220;19.878;2023-03-14T05:47:50;12.07;;;6.35;;
75941;SDS011;64622;46.220;19.878;2023-03-14T05:50:17;14.13;;;5.80;;
75941;SDS011;64622;46.220;19.878;2023-03-14T05:52:45;15.38;;;6.50;;
75941;SDS011;64622;46.220;19.878;2023-03-14T05:55:12;13.80;;;5.87;;
75941;SDS011;64622;46.220;19.878;2023-03-14T05:57:39;16.95;;;5.00;;
75941;SDS011;64622;46.220;19.878;2023-03-14T06:00:09;14.45;;;6.28;;
75941;SDS011;64622;46.220;19.878;2023-03-14T06:02:38;13.32;;;5.53;;
75941;SDS011;64622;46.220;19.878;2023-03-14T06:05:06;13.75;;;5.15;;
75941;SDS011;64622;46.220;19.878;2023-03-14T06:07:33;13.27;;;6.17;;
75941;SDS011;64622;46.220;19.878;2023-03-14T06:10:00;11.90;;;4.70;;
75941;SDS011;64622;46.220;19.878;2023-03-14T06:12:27;13.75;;;5.68;;
75941;SDS011;64622;46.220;19.878;2023-03-14T06:14:55;13.35;;;5.37;;
75941;SDS011;64622;46.220;19.878;2023-03-14T06:17:22;12.88;;;5.72;;
75941;SDS011;64622;46.220;19.878;2023-03-14T06:19:51;12.43;;;5.63;;
75941;SDS011;64622;46.220;19.878;2023-03-14T06:22:18;13.25;;;5.25;;
75941;SDS011;64622;46.220;19.878;2023-03-14T06:24:45;13.25;;;4.87;;
75941;SDS011;64622;46.220;19.878;2023-03-14T06:27:13;14.18;;;5.90;;
75941;SDS011;64622;46.220;19.878;2023-03-14T06:29:40;13.00;;;5.47;;
75941;SDS011;64622;46.220;19.878;2023-03-14T06:32:07;11.90;;;5.30;;
75941;SDS011;64622;46.220;19.878;2023-03-14T06:34:36;13.10;;;5.72;;
75941;SDS011;64622;46.220;19.878;2023-03-14T06:37:04;12.52;;;5.57;;
75941;SDS011;64622;46.220;19.878;2023-03-14T06:39:32;12.10;;;5.62;;
75941;SDS011;64622;46.220;19.878;2023-03-14T06:41:59;14.87;;;6.20;;
75941;SDS011;64622;46.220;19.878;2023-03-14T06:44:26;14.17;;;5.83;;
75941;SDS011;64622;46.220;19.878;2023-03-14T06:46:52;11.25;;;5.50;;
75941;SDS011;64622;46.220;19.878;2023-03-14T06:49:20;15.43;;;5.93;;
75941;SDS011;64622;46.220;19.878;2023-03-14T06:51:51;13.00;;;5.87;;
75941;SDS011;64622;46.220;19.878;2023-03-14T06:54:18;13.40;;;6.20;;
75941;SDS011;64622;46.220;19.878;2023-03-14T06:56:45;17.20;;;6.10;;
75941;SDS011;64622;46.220;19.878;2023-03-14T06:59:13;15.57;;;5.65;;
75941;SDS011;64622;46.220;19.878;2023-03-14T07:01:40;14.13;;;5.68;;
75941;SDS011;64622;46.220;19.878;2023-03-14T07:04:08;16.62;;;5.85;;
75941;SDS011;64622;46.220;19.878;2023-03-14T07:06:36;15.68;;;5.50;;
75941;SDS011;64622;46.220;19.878;2023-03-14T07:09:04;16.37;;;6.30;;
75941;SDS011;64622;46.220;19.878;2023-03-14T07:11:32;14.90;;;5.62;;
75941;SDS011;64622;46.220;19.878;2023-03-14T07:14:01;15.23;;;4.62;;
75941;SDS011;64622;46.220;19.878;2023-03-14T07:16:27;15.00;;;5.47;;
75941;SDS011;64622;46.220;19.878;2023-03-14T07:18:57;17.17;;;6.03;;
75941;SDS011;64622;46.220;19.878;2023-03-14T07:21:26;13.57;;;5.47;;
75941;SDS011;64622;46.220;19.878;2023-03-14T07:23:53;11.85;;;5.43;;
75941;SDS011;64622;46.220;19.878;2023-03-14T07:26:21;12.35;;;5.72;;
75941;SDS011;64622;46.220;19.878;2023-03-14T07:28:48;12.07;;;6.10;;
75941;SDS011;64622;46.220;19.878;2023-03-14T07:31:15;15.07;;;6.25;;
75941;SDS011;64622;46.220;19.878;2023-03-14T07:33:42;14.73;;;4.60;;
75941;SDS011;64622;46.220;19.878;2023-03-14T07:36:09;13.27;;;5.03;;
75941;SDS011;64622;46.220;19.878;2023-03-14T07:38:36;14.52;;;5.35;;
75941;SDS011;64622;46.220;19.878;2023-03-14T07:41:05;11.23;;;4.25;;
75941;SDS011;64622;46.220;19.878;2023-03-14T07:43:33;12.07;;;5.75;;
75941;SDS011;64622;46.220;19.878;2023-03-14T07:46:00;11.83;;;5.13;;
75941;SDS011;64622;46.220;19.878;2023-03-14T07:48:27;13.30;;;6.00;;
75941;SDS011;64622;46.220;19.878;2023-03-14T07:50:54;11.30;;;5.55;;
75941;SDS011;64622;46.220;19.878;2023-03-14T07:53:21;12.93;;;5.18;;
75941;SDS011;64622;46.220;19.878;2023-03-14T07:55:52;14.43;;;5.70;;
75941;SDS011;64622;46.220;19.878;2023-03-14T07:58:20;13.07;;;5.60;;
75941;SDS011;64622;46.220;19.878;2023-03-14T08:00:48;10.95;;;5.25;;
75941;SDS011;64622;46.220;19.878;2023-03-14T08:03:15;14.82;;;5.78;;
75941;SDS011;64622;46.220;19.878;2023-03-14T08:05:42;15.25;;;6.55;;
75941;SDS011;64622;46.220;19.878;2023-03-14T08:08:09;13.20;;;5.55;;
75941;SDS011;64622;46.220;19.878;2023-03-14T08:10:36;13.43;;;6.60;;
75941;SDS011;64622;46.220;19.878;2023-03-14T08:13:03;14.68;;;5.85;;
75941;SDS011;64622;46.220;19.878;2023-03-14T08:15:29;13.32;;;5.93;;
75941;SDS011;64622;46.220;19.878;2023-03-14T08:17:58;15.27;;;5.87;;
75941;SDS011;64622;46.220;19.878;2023-03-14T08:20:26;12.75;;;5.60;;
75941;SDS011;64622;46.220;19.878;2023-03-14T08:22:58;14.80;;;6.93;;
75941;SDS011;64622;46.220;19.878;2023-03-14T08:25:27;15.18;;;6.05;;
75941;SDS011;64622;46.220;19.878;2023-03-14T08:27:54;12.27;;;5.30;;
75941;SDS011;64622;46.220;19.878;2023-03-14T08:30:21;13.70;;;5.95;;
75941;SDS011;64622;46.220;19.878;2023-03-14T08:32:49;12.25;;;5.87;;
75941;SDS011;64622;46.220;19.878;2023-03-14T08:35:16;13.27;;;6.23;;
75941;SDS011;64622;46.220;19.878;2023-03-14T08:37:43;17.33;;;5.97;;
75941;SDS011;64622;46.220;19.878;2023-03-14T08:40:10;14.55;;;5.55;;
75941;SDS011;64622;46.220;19.878;2023-03-14T08:42:38;13.48;;;5.93;;
75941;SDS011;64622;46.220;19.878;2023-03-14T08:45:06;13.70;;;6.37;;
75941;SDS011;64622;46.220;19.878;2023-03-14T08:47:34;16.97;;;7.60;;
75941;SDS011;64622;46.220;19.878;2023-03-14T08:50:03;17.23;;;6.45;;
75941;SDS011;64622;46.220;19.878;2023-03-14T08:52:33;16.12;;;6.45;;
75941;SDS011;64622;46.220;19.878;2023-03-14T08:55:00;16.15;;;6.32;;
75941;SDS011;64622;46.220;19.878;2023-03-14T08:57:26;15.05;;;6.75;;
75941;SDS011;64622;46.220;19.878;2023-03-14T08:59:55;13.97;;;6.57;;
75941;SDS011;64622;46.220;19.878;2023-03-14T09:02:24;18.25;;;6.25;;
75941;SDS011;64622;46.220;19.878;2023-03-14T09:04:52;16.50;;;5.62;;
75941;SDS011;64622;46.220;19.878;2023-03-14T09:07:19;22.27;;;8.15;;
75941;SDS011;64622;46.220;19.878;2023-03-14T09:09:46;15.95;;;6.47;;
75941;SDS011;64622;46.220;19.878;2023-03-14T09:12:13;12.87;;;5.60;;
75941;SDS011;64622;46.220;19.878;2023-03-14T09:14:39;13.43;;;4.97;;
75941;SDS011;64622;46.220;19.878;2023-03-14T09:17:07;14.82;;;5.85;;
75941;SDS011;64622;46.220;19.878;2023-03-14T09:19:35;14.05;;;5.47;;
75941;SDS011;64622;46.220;19.878;2023-03-14T09:22:02;13.82;;;5.15;;
75941;SDS011;64622;46.220;19.878;2023-03-14T09:24:29;13.57;;;5.53;;
75941;SDS011;64622;46.220;19.878;2023-03-14T09:26:56;11.25;;;5.50;;
75941;SDS011;64622;46.220;19.878;2023-03-14T09:29:23;11.57;;;5.53;;
75941;SDS011;64622;46.220;19.878;2023-03-14T09:31:51;13.07;;;5.87;;
75941;SDS011;64622;46.220;19.878;2023-03-14T09:34:18;10.95;;;5.05;;
75941;SDS011;64622;46.220;19.878;2023-03-14T09:36:45;13.97;;;6.00;;
75941;SDS011;64622;46.220;19.878;2023-03-14T09:39:12;10.75;;;4.53;;
75941;SDS011;64622;46.220;19.878;2023-03-14T09:41:56;13.13;;;5.05;;
75941;SDS011;64622;46.220;19.878;2023-03-14T09:44:33;12.27;;;4.72;;
75941;SDS011;64622;46.220;19.878;2023-03-14T09:47:07;13.10;;;5.18;;
75941;SDS011;64622;46.220;19.878;2023-03-14T09:49:39;12.23;;;4.90;;
75941;SDS011;64622;46.220;19.878;2023-03-14T09:52:17;12.57;;;5.07;;
75941;SDS011;64622;46.220;19.878;2023-03-14T09:54:51;12.02;;;5.30;;
75941;SDS011;64622;46.220;19.878;2023-03-14T09:57:21;12.10;;;5.53;;
75941;SDS011;64622;46.220;19.878;2023-03-14T09:59:51;12.32;;;4.87;;
75941;SDS011;64622;46.220;19.878;2023-03-14T10:02:24;13.17;;;5.43;;
75941;SDS011;64622;46.220;19.878;2023-03-14T10:04:55;11.48;;;5.32;;
75941;SDS011;64622;46.220;19.878;2023-03-14T10:07:29;13.25;;;5.43;;
75941;SDS011;64622;46.220;19.878;2023-03-14T10:09:59;11.77;;;5.20;;
75941;SDS011;64622;46.220;19.878;2023-03-14T10:12:33;14.35;;;5.87;;
75941;SDS011;64622;46.220;19.878;2023-03-14T10:15:07;12.53;;;4.87;;
75941;SDS011;64622;46.220;19.878;2023-03-14T10:17:43;12.80;;;4.78;;
75941;SDS011;64622;46.220;19.878;2023-03-14T10:20:33;12.18;;;4.50;;
75941;SDS011;64622;46.220;19.878;2023-03-14T10:23:05;12.55;;;4.80;;
75941;SDS011;64622;46.220;19.878;2023-03-14T10:25:46;12.52;;;4.97;;
75941;SDS011;64622;46.220;19.878;2023-03-14T10:28:28;13.73;;;4.83;;
75941;SDS011;64622;46.220;19.878;2023-03-14T10:30:57;12.32;;;4.62;;
75941;SDS011;64622;46.220;19.878;2023-03-14T10:33:26;14.10;;;5.18;;
75941;SDS011;64622;46.220;19.878;2023-03-14T10:35:59;11.82;;;5.28;;
75941;SDS011;64622;46.220;19.878;2023-03-14T10:38:32;19.15;;;5.30;;
75941;SDS011;64622;46.220;19.878;2023-03-14T10:41:01;11.90;;;4.43;;
75941;SDS011;64622;46.220;19.878;2023-03-14T10:43:40;12.68;;;4.25;;
75941;SDS011;64622;46.220;19.878;2023-03-14T10:46:15;13.38;;;4.47;;
75941;SDS011;64622;46.220;19.878;2023-03-14T10:48:58;12.30;;;4.85;;
75941;SDS011;64622;46.220;19.878;2023-03-14T10:51:26;13.82;;;4.37;;
75941;SDS011;64622;46.220;19.878;2023-03-14T10:56:35;11.95;;;4.18;;
75941;SDS011;64622;46.220;19.878;2023-03-14T10:59:04;13.80;;;4.70;;
75941;SDS011;64622;46.220;19.878;2023-03-14T11:12:49;14.50;;;4.68;;
75941;SDS011;64622;46.220;19.878;2023-03-14T11:15:41;15.85;;;4.72;;
75941;SDS011;64622;46.220;19.878;2023-03-14T11:18:43;12.98;;;4.90;;
75941;SDS011;64622;46.220;19.878;2023-03-14T11:21:29;14.63;;;4.60;;
75941;SDS011;64622;46.220;19.878;2023-03-14T11:27:48;13.30;;;5.72;;
75941;SDS011;64622;46.220;19.878;2023-03-14T11:32:56;11.27;;;4.37;;
75941;SDS011;64622;46.220;19.878;2023-03-14T11:40:37;18.87;;;5.80;;
75941;SDS011;64622;46.220;19.878;2023-03-14T11:45:38;14.00;;;6.03;;
75941;SDS011;64622;46.220;19.878;2023-03-14T11:50:37;14.68;;;5.97;;
75941;SDS011;64622;46.220;19.878;2023-03-14T11:53:18;15.68;;;6.37;;
75941;SDS011;64622;46.220;19.878;2023-03-14T11:55:47;14.90;;;5.80;;
75941;SDS011;64622;46.220;19.878;2023-03-14T11:58:26;12.80;;;4.95;;
75941;SDS011;64622;46.220;19.878;2023-03-14T12:00:56;13.50;;;4.97;;
75941;SDS011;64622;46.220;19.878;2023-03-14T12:11:32;10.02;;;3.85;;
75941;SDS011;64622;46.220;19.878;2023-03-14T12:14:32;11.73;;;4.60;;
75941;SDS011;64622;46.220;19.878;2023-03-14T12:19:34;9.00;;;3.55;;
75941;SDS011;64622;46.220;19.878;2023-03-14T12:22:07;11.85;;;4.12;;
75941;SDS011;64622;46.220;19.878;2023-03-14T12:25:33;11.65;;;3.80;;
75941;SDS011;64622;46.220;19.878;2023-03-14T12:27:40;11.50;;;3.60;;
75941;SDS011;64622;46.220;19.878;2023-03-14T12:33:07;10.07;;;3.50;;
75941;SDS011;64622;46.220;19.878;2023-03-14T12:41:03;10.30;;;4.03;;
75941;SDS011;64622;46.220;19.878;2023-03-14T12:43:40;12.70;;;4.55;;
75941;SDS011;64622;46.220;19.878;2023-03-14T12:48:34;12.00;;;3.83;;
75941;SDS011;64622;46.220;19.878;2023-03-14T12:54:00;11.17;;;3.70;;
75941;SDS011;64622;46.220;19.878;2023-03-14T13:02:10;9.18;;;2.95;;
75941;SDS011;64622;46.220;19.878;2023-03-14T13:05:29;7.68;;;2.85;;
75941;SDS011;64622;46.220;19.878;2023-03-14T13:12:57;10.48;;;4.12;;
75941;SDS011;64622;46.220;19.878;2023-03-14T13:15:31;9.77;;;4.32;;
75941;SDS011;64622;46.220;19.878;2023-03-14T13:18:08;13.07;;;4.10;;
75941;SDS011;64622;46.220;19.878;2023-03-14T13:20:58;11.20;;;3.43;;
75941;SDS011;64622;46.220;19.878;2023-03-14T13:23:29;11.48;;;3.67;;
75941;SDS011;64622;46.220;19.878;2023-03-14T13:25:59;9.57;;;3.17;;
75941;SDS011;64622;46.220;19.878;2023-03-14T13:28:27;10.05;;;2.87;;
75941;SDS011;64622;46.220;19.878;2023-03-14T13:31:03;9.38;;;3.83;;
75941;SDS011;64622;46.220;19.878;2023-03-14T13:33:32;10.07;;;3.17;;
75941;SDS011;64622;46.220;19.878;2023-03-14T13:36:01;9.93;;;2.90;;
75941;SDS011;64622;46.220;19.878;2023-03-14T13:38:30;11.57;;;3.40;;
75941;SDS011;64622;46.220;19.878;2023-03-14T13:41:00;9.15;;;3.33;;
75941;SDS011;64622;46.220;19.878;2023-03-14T13:43:31;13.32;;;3.50;;
75941;SDS011;64622;46.220;19.878;2023-03-14T13:48:32;8.07;;;2.67;;
75941;SDS011;64622;46.220;19.878;2023-03-14T13:51:03;8.85;;;3.12;;
75941;SDS011;64622;46.220;19.878;2023-03-14T13:53:33;9.88;;;3.35;;
75941;SDS011;64622;46.220;19.878;2023-03-14T13:56:12;12.40;;;4.03;;
75941;SDS011;64622;46.220;19.878;2023-03-14T13:58:40;12.47;;;3.37;;
75941;SDS011;64622;46.220;19.878;2023-03-14T14:01:22;11.48;;;3.45;;
75941;SDS011;64622;46.220;19.878;2023-03-14T14:03:52;11.18;;;4.35;;
75941;SDS011;64622;46.220;19.878;2023-03-14T14:09:10;12.88;;;3.20;;
75941;SDS011;64622;46.220;19.878;2023-03-14T14:11:43;11.80;;;3.70;;
75941;SDS011;64622;46.220;19.878;2023-03-14T14:14:17;10.57;;;3.37;;
75941;SDS011;64622;46.220;19.878;2023-03-14T14:16:54;8.20;;;3.30;;
75941;SDS011;64622;46.220;19.878;2023-03-14T14:19:23;10.82;;;3.65;;
75941;SDS011;64622;46.220;19.878;2023-03-14T14:21:53;8.65;;;3.20;;
75941;SDS011;64622;46.220;19.878;2023-03-14T14:24:20;11.70;;;3.50;;
75941;SDS011;64622;46.220;19.878;2023-03-14T14:26:52;9.50;;;3.35;;
75941;SDS011;64622;46.220;19.878;2023-03-14T14:29:37;9.45;;;2.85;;
75941;SDS011;64622;46.220;19.878;2023-03-14T14:34:48;8.50;;;3.30;;
75941;SDS011;64622;46.220;19.878;2023-03-14T14:37:42;8.77;;;3.20;;
75941;SDS011;64622;46.220;19.878;2023-03-14T14:42:45;9.50;;;3.37;;
75941;SDS011;64622;46.220;19.878;2023-03-14T14:45:14;10.15;;;3.15;;
75941;SDS011;64622;46.220;19.878;2023-03-14T14:47:54;11.45;;;3.33;;
75941;SDS011;64622;46.220;19.878;2023-03-14T14:50:36;8.80;;;2.83;;
75941;SDS011;64622;46.220;19.878;2023-03-14T14:55:57;10.02;;;3.22;;
75941;SDS011;64622;46.220;19.878;2023-03-14T14:58:33;10.35;;;3.35;;
75941;SDS011;64622;46.220;19.878;2023-03-14T15:01:05;9.00;;;3.28;;
75941;SDS011;64622;46.220;19.878;2023-03-14T15:03:38;9.10;;;3.13;;
75941;SDS011;64622;46.220;19.878;2023-03-14T15:06:05;9.80;;;3.20;;
75941;SDS011;64622;46.220;19.878;2023-03-14T15:08:31;14.40;;;6.15;;
75941;SDS011;64622;46.220;19.878;2023-03-14T15:10:58;12.37;;;3.30;;
75941;SDS011;64622;46.220;19.878;2023-03-14T15:13:25;9.68;;;3.30;;
75941;SDS011;64622;46.220;19.878;2023-03-14T15:15:51;8.20;;;3.20;;
75941;SDS011;64622;46.220;19.878;2023-03-14T15:18:23;8.90;;;3.60;;
75941;SDS011;64622;46.220;19.878;2023-03-14T15:20:51;9.45;;;3.53;;
75941;SDS011;64622;46.220;19.878;2023-03-14T15:23:18;11.48;;;4.25;;
75941;SDS011;64622;46.220;19.878;2023-03-14T15:25:47;9.75;;;3.83;;
75941;SDS011;64622;46.220;19.878;2023-03-14T15:28:15;14.83;;;6.10;;
75941;SDS011;64622;46.220;19.878;2023-03-14T15:30:42;19.27;;;9.00;;
75941;SDS011;64622;46.220;19.878;2023-03-14T15:33:09;18.17;;;8.77;;
75941;SDS011;64622;46.220;19.878;2023-03-14T15:35:36;17.67;;;7.15;;
75941;SDS011;64622;46.220;19.878;2023-03-14T15:38:03;15.70;;;6.70;;
75941;SDS011;64622;46.220;19.878;2023-03-14T15:40:37;13.77;;;5.77;;
75941;SDS011;64622;46.220;19.878;2023-03-14T15:43:03;12.57;;;6.22;;
75941;SDS011;64622;46.220;19.878;2023-03-14T15:45:30;11.63;;;4.70;;
75941;SDS011;64622;46.220;19.878;2023-03-14T15:47:57;9.90;;;3.92;;
75941;SDS011;64622;46.220;19.878;2023-03-14T15:50:26;11.70;;;4.62;;
75941;SDS011;64622;46.220;19.878;2023-03-14T15:52:53;14.13;;;5.13;;
75941;SDS011;64622;46.220;19.878;2023-03-14T15:55:20;14.05;;;6.87;;
75941;SDS011;64622;46.220;19.878;2023-03-14T15:57:47;21.70;;;11.43;;
75941;SDS011;64622;46.220;19.878;2023-03-14T16:00:16;15.40;;;7.18;;
75941;SDS011;64622;46.220;19.878;2023-03-14T16:02:45;18.02;;;8.43;;
75941;SDS011;64622;46.220;19.878;2023-03-14T16:05:12;12.83;;;5.43;;